createdAt,value
2017-03-27T16:44:35.391Z,3.03
2017-03-27T16:45:33.951Z,2.88
2017-03-27T16:46:32.848Z,5.47
2017-03-27T16:47:31.700Z,8.13
2017-03-27T16:48:30.600Z,3.23
2017-03-27T16:49:29.434Z,4.77
2017-03-27T16:50:28.571Z,6.02
2017-03-27T16:51:27.394Z,3.97
2017-03-27T16:52:27.216Z,3.00
2017-03-27T16:53:26.284Z,3.82
2017-03-27T16:54:25.943Z,5.07
2017-03-27T16:55:24.504Z,4.60
2017-03-27T16:56:23.467Z,4.38
2017-03-27T16:57:22.172Z,5.73
2017-03-27T16:58:21.500Z,5.15
2017-03-27T16:59:20.449Z,4.28
2017-03-27T17:00:19.051Z,4.02
2017-03-27T17:01:17.698Z,3.95
2017-03-27T17:02:16.927Z,4.02
2017-03-27T17:03:15.795Z,3.88
2017-03-27T17:04:14.818Z,3.90
2017-03-27T17:05:13.776Z,2.93
2017-03-27T17:06:12.742Z,5.72
2017-03-27T17:07:12.492Z,4.90
2017-03-27T17:08:13.194Z,4.35
2017-03-27T17:09:12.223Z,3.73
2017-03-27T17:10:14.561Z,4.42
2017-03-27T17:11:13.567Z,3.27
2017-03-27T17:12:12.779Z,3.53
2017-03-27T17:18:47.867Z,4.42
2017-03-27T17:19:58.480Z,3.52
2017-03-27T17:21:04.567Z,3.77
2017-03-27T17:22:11.846Z,5.03
2017-03-27T17:23:23.641Z,6.75
2017-03-27T17:25:46.721Z,3.75
2017-03-27T17:27:01.043Z,6.87
2017-03-27T17:32:47.635Z,3.20
2017-03-27T17:33:49.857Z,3.98
2017-03-27T17:34:50.778Z,2.58
2017-03-27T17:35:57.329Z,3.08
2017-03-27T17:36:59.642Z,4.78
2017-03-27T17:38:01.096Z,2.67
2017-03-27T17:39:01.345Z,5.18
2017-03-27T17:40:03.428Z,5.05
2017-03-27T17:41:10.500Z,3.28
2017-03-27T17:42:11.331Z,4.45
2017-03-27T17:43:12.716Z,3.43
2017-03-27T17:44:13.962Z,5.32
2017-03-27T17:45:15.313Z,3.45
2017-03-27T17:46:16.001Z,4.70
2017-03-27T17:47:19.708Z,4.92
2017-03-27T17:48:21.559Z,4.82
2017-03-27T17:49:22.097Z,5.27
2017-03-27T17:50:29.261Z,4.38
2017-03-27T17:51:29.139Z,4.48
2017-03-27T17:52:29.051Z,5.12
2017-03-27T17:53:31.389Z,6.93
2017-03-27T17:54:31.071Z,3.60
2017-03-27T17:55:31.435Z,6.73
2017-03-27T17:56:33.514Z,5.42
2017-03-27T17:57:40.528Z,5.20
2017-03-27T17:58:44.041Z,5.80
2017-03-27T18:00:57.254Z,5.47
2017-03-27T18:01:57.420Z,5.33
2017-03-27T18:02:58.657Z,4.08
2017-03-27T18:04:00.336Z,4.38
2017-03-27T18:06:07.258Z,6.92
2017-03-27T18:07:13.400Z,4.60
2017-03-27T18:08:17.132Z,3.83
2017-03-27T18:10:58.023Z,6.08
2017-03-27T18:12:07.996Z,7.45
2017-03-27T18:13:14.488Z,6.18
2017-03-27T18:14:24.808Z,5.12
2017-03-27T18:16:37.443Z,4.75
2017-03-27T18:17:44.863Z,5.58
2017-03-27T18:18:53.792Z,8.33
2017-03-27T18:19:56.397Z,4.50
2017-03-27T18:21:08.168Z,5.00
2017-03-27T18:22:13.674Z,2.83
2017-03-27T18:23:20.109Z,3.55
2017-03-27T18:24:32.632Z,4.53
2017-03-27T18:25:51.716Z,3.38
2017-03-27T18:27:03.545Z,3.80
2017-03-27T18:28:05.777Z,4.00
2017-03-27T18:29:11.886Z,2.47
2017-03-27T18:30:14.608Z,5.35
2017-03-27T18:31:26.899Z,3.45
2017-03-27T18:32:40.878Z,4.30
2017-03-27T18:33:47.716Z,3.37
2017-03-27T18:36:10.390Z,4.82
2017-03-27T18:37:12.704Z,6.93
2017-03-27T18:38:38.283Z,4.62
2017-03-27T18:39:41.990Z,2.77
2017-03-27T18:40:44.595Z,7.00
2017-03-27T18:41:47.661Z,4.58
2017-03-27T18:42:51.836Z,7.32
2017-03-27T18:44:05.346Z,3.85
2017-03-27T18:46:53.372Z,4.98
2017-03-27T18:47:54.933Z,6.93
2017-03-27T18:48:56.435Z,5.72
2017-03-27T18:50:03.449Z,5.93
2017-03-27T18:51:06.633Z,5.73
2017-03-27T18:52:12.782Z,4.78
2017-03-27T18:53:29.480Z,3.10
2017-03-27T18:54:36.901Z,2.92
2017-03-27T18:55:45.538Z,3.63
2017-03-27T18:56:49.999Z,5.65
2017-03-27T18:58:02.524Z,3.67
2017-03-27T18:59:03.563Z,6.23
2017-03-27T19:00:05.763Z,5.05
2017-03-27T19:01:13.762Z,5.75
2017-03-27T19:02:21.413Z,4.15
2017-03-27T19:03:24.775Z,6.98
2017-03-27T19:04:27.692Z,4.85
2017-03-27T19:05:28.937Z,3.98
2017-03-27T19:06:34.791Z,4.48
2017-03-27T19:07:55.671Z,4.43
2017-03-27T19:09:00.886Z,4.80
2017-03-27T19:10:04.186Z,6.33
2017-03-27T19:11:12.591Z,4.88
2017-03-27T19:12:20.013Z,5.53
2017-03-27T19:13:23.084Z,4.28
2017-03-27T19:16:19.347Z,3.35
2017-03-27T19:17:23.754Z,5.02
2017-03-27T19:18:30.828Z,4.15
2017-03-27T19:19:35.632Z,4.52
2017-03-27T19:20:52.221Z,2.98
2017-03-27T19:22:03.062Z,4.62
2017-03-27T19:23:14.429Z,4.03
2017-03-27T19:24:20.864Z,2.53
2017-03-27T19:25:24.567Z,2.37
2017-03-27T19:26:25.895Z,2.58
2017-03-27T19:27:29.548Z,4.57
2017-03-27T19:28:32.093Z,3.52
2017-03-27T19:29:31.329Z,3.67
2017-03-27T19:30:33.620Z,3.25
2017-03-27T19:31:49.012Z,4.58
2017-03-27T19:33:39.715Z,5.18
2017-03-27T19:34:44.581Z,1.43
2017-03-27T19:53:03.528Z,4.55
2017-03-27T19:54:02.373Z,9.98
2017-03-27T19:55:01.277Z,6.78
2017-03-27T19:56:00.141Z,6.30
2017-03-27T19:56:59.048Z,5.28
2017-03-27T19:57:57.934Z,8.65
2017-03-27T19:58:57.079Z,5.78
2017-03-27T19:59:55.531Z,5.08
2017-03-27T20:00:54.417Z,8.12
2017-03-27T20:01:53.256Z,11.72
2017-03-27T20:02:52.109Z,4.67
2017-03-27T20:03:51.004Z,5.42
2017-03-27T20:04:50.134Z,6.75
2017-03-27T20:05:48.993Z,4.97
2017-03-27T20:06:47.871Z,8.33
2017-03-27T20:07:46.763Z,10.82
2017-03-27T20:08:45.631Z,5.00
2017-03-27T20:09:44.096Z,6.25
2017-03-27T20:10:43.288Z,9.60
2017-03-27T20:11:42.526Z,7.17
2017-03-27T20:12:41.031Z,5.53
2017-03-27T20:13:39.882Z,5.68
2017-03-27T20:14:38.745Z,6.23
2017-03-27T20:15:37.280Z,8.05
2017-03-27T20:16:36.560Z,8.13
2017-03-27T20:17:35.408Z,10.82
2017-03-27T20:18:34.263Z,23.12
2017-03-27T20:19:33.102Z,23.27
2017-03-27T20:20:31.988Z,26.33
2017-03-27T20:21:30.824Z,31.48
2017-03-27T20:22:29.978Z,33.60
2017-03-27T20:23:28.421Z,33.92
2017-03-27T20:24:26.905Z,32.97
2017-03-27T20:25:25.730Z,30.63
2017-03-27T20:26:24.521Z,30.10
2017-03-27T20:27:23.389Z,31.17
2017-03-27T20:28:22.526Z,30.20
2017-03-27T20:29:21.467Z,28.60
2017-03-27T20:30:20.674Z,28.93
2017-03-27T20:31:19.531Z,26.75
2017-03-27T20:32:18.376Z,26.25
2017-03-27T20:33:17.217Z,20.38
2017-03-27T20:34:16.431Z,18.65
2017-03-27T20:35:15.340Z,17.78
2017-03-27T20:36:14.276Z,13.08
2017-03-27T20:37:13.502Z,11.55
2017-03-27T20:38:12.324Z,9.70
2017-03-27T20:39:11.183Z,8.20
2017-03-27T20:40:10.418Z,7.32
2017-03-27T20:41:08.904Z,7.32
2017-03-27T20:42:07.668Z,6.40
2017-03-27T20:43:07.349Z,4.73
2017-03-27T20:44:06.266Z,5.17
2017-03-27T20:45:05.113Z,4.58
2017-03-27T20:46:04.705Z,5.13
2017-03-27T20:47:03.565Z,6.17
2017-03-27T20:48:02.483Z,3.65
2017-03-27T20:49:01.354Z,8.83
2017-03-27T20:50:00.444Z,3.07
2017-03-27T20:50:59.305Z,3.20
2017-03-27T20:51:58.443Z,3.70
2017-03-27T20:52:57.285Z,3.88
2017-03-27T20:53:56.178Z,4.33
2017-03-27T20:54:54.725Z,7.07
2017-03-27T20:55:53.602Z,3.25
2017-03-27T20:56:52.458Z,2.47
2017-03-27T20:57:51.682Z,4.65
2017-03-27T20:58:50.147Z,4.63
2017-03-27T20:59:49.033Z,4.97
2017-03-27T21:00:47.931Z,4.45
2017-03-27T21:01:46.886Z,3.22
2017-03-27T21:02:45.723Z,6.32
2017-03-27T21:03:44.945Z,7.03
2017-03-27T21:04:43.792Z,3.85
2017-03-27T21:05:42.662Z,4.55
2017-03-27T21:06:41.588Z,3.43
2017-03-27T21:07:40.836Z,6.25
2017-03-27T21:08:39.705Z,3.18
2017-03-27T21:09:39.329Z,2.65
2017-03-27T21:10:38.704Z,3.08
2017-03-27T21:11:37.240Z,4.65
2017-03-27T21:12:36.105Z,2.82
2017-03-27T21:13:35.009Z,3.58
2017-03-27T21:14:33.935Z,3.05
2017-03-27T21:15:33.111Z,4.97
2017-03-27T21:16:31.960Z,4.48
2017-03-27T21:17:30.818Z,3.58
2017-03-27T21:18:29.670Z,4.50
2017-03-27T21:19:28.644Z,3.18
2017-03-27T21:20:27.540Z,4.38
2017-03-27T21:21:26.756Z,6.22
2017-03-27T21:22:25.626Z,3.00
2017-03-27T21:23:24.531Z,10.12
2017-03-27T21:24:23.134Z,4.28
2017-03-27T21:25:22.010Z,4.80
2017-03-27T21:26:20.813Z,5.30
2017-03-27T21:27:20.041Z,5.33
2017-03-27T21:28:18.929Z,4.78
2017-03-27T21:29:17.436Z,9.12
2017-03-27T21:30:16.280Z,4.42
2017-03-27T21:31:14.736Z,6.32
2017-03-27T21:32:13.608Z,4.30
2017-03-27T21:33:12.807Z,6.10
2017-03-27T21:34:11.697Z,3.78
2017-03-27T21:35:10.595Z,5.00
2017-03-27T21:36:09.463Z,8.63
2017-03-27T21:37:08.301Z,7.87
2017-03-27T21:38:07.150Z,5.97
2017-03-27T21:39:06.383Z,8.00
2017-03-27T21:40:05.264Z,7.33
2017-03-27T21:41:04.217Z,8.58
2017-03-27T21:42:02.688Z,6.38
2017-03-27T21:43:01.588Z,5.73
2017-03-27T21:44:01.157Z,5.57
2017-03-27T21:45:01.140Z,10.43
2017-03-27T21:45:59.995Z,7.08
2017-03-27T21:46:58.862Z,9.52
2017-03-27T21:47:57.700Z,8.43
2017-03-27T21:48:56.564Z,8.45
2017-03-27T21:49:55.065Z,8.58
2017-03-27T21:50:54.256Z,6.33
2017-03-27T21:51:53.069Z,9.17
2017-03-27T21:52:52.022Z,7.13
2017-03-27T21:53:50.920Z,10.15
2017-03-27T21:54:49.744Z,7.22
2017-03-27T21:55:48.539Z,6.32
2017-03-27T21:56:47.794Z,7.37
2017-03-27T21:57:46.642Z,6.82
2017-03-27T21:58:45.511Z,4.02
2017-03-27T21:59:44.347Z,7.25
2017-03-27T22:00:43.146Z,8.93
2017-03-27T22:01:42.087Z,8.42
2017-03-27T22:02:41.251Z,7.47
2017-03-27T22:03:40.152Z,7.87
2017-03-27T22:04:38.979Z,7.65
2017-03-27T22:05:37.914Z,11.75
2017-03-27T22:06:36.757Z,8.58
2017-03-27T22:07:35.612Z,12.33
2017-03-27T22:08:34.925Z,14.27
2017-03-27T22:09:33.784Z,11.83
2017-03-27T22:10:32.678Z,11.63
2017-03-27T22:11:31.511Z,13.25
2017-03-27T22:12:30.424Z,8.32
2017-03-27T22:13:29.224Z,7.57
2017-03-27T22:14:28.373Z,8.22
2017-03-27T22:15:27.209Z,7.67
2017-03-27T22:16:26.064Z,7.82
2017-03-27T22:17:24.955Z,7.95
2017-03-27T22:18:23.788Z,8.55
2017-03-27T22:19:22.646Z,9.10
2017-03-27T22:20:21.421Z,5.97
2017-03-27T22:21:19.875Z,8.68
2017-03-27T22:22:18.758Z,7.02
2017-03-27T22:23:17.679Z,5.68
2017-03-27T22:24:16.518Z,11.82
2017-03-27T22:25:15.354Z,6.57
2017-03-27T22:26:14.594Z,6.47
2017-03-27T22:27:13.443Z,6.23
2017-03-27T22:28:12.364Z,8.20
2017-03-27T22:29:11.227Z,5.30
2017-03-27T22:30:10.377Z,10.80
2017-03-27T22:31:11.117Z,3.87
2017-03-27T22:32:10.348Z,4.40
2017-03-27T22:33:09.778Z,4.63
2017-03-27T22:34:08.631Z,5.18
2017-03-27T22:36:03.393Z,6.23
2017-03-27T22:37:01.866Z,5.90
2017-03-27T22:38:01.070Z,6.63
2017-03-27T22:39:00.266Z,6.17
2017-03-27T22:39:59.162Z,6.62
2017-03-27T22:40:58.084Z,5.42
2017-03-27T22:41:57.014Z,7.57
2017-03-27T22:42:56.266Z,4.58
2017-03-27T22:43:55.464Z,6.12
2017-03-27T22:44:58.795Z,6.98
2017-03-27T22:45:57.692Z,4.52
2017-03-27T22:46:56.185Z,5.37
2017-03-27T22:47:55.078Z,6.03
2017-03-27T22:48:53.978Z,6.22
2017-03-27T22:49:53.150Z,5.67
2017-03-27T22:51:06.181Z,7.03
2017-03-27T22:52:05.845Z,7.97
2017-03-27T22:53:05.349Z,7.05
2017-03-27T22:54:04.318Z,5.67
2017-03-27T22:55:03.510Z,7.05
2017-03-27T22:56:02.458Z,6.12
2017-03-27T22:57:01.340Z,10.58
2017-03-27T22:58:00.222Z,5.53
2017-03-27T22:58:59.144Z,7.03
2017-03-27T22:59:57.979Z,5.72
2017-03-27T23:00:57.242Z,4.78
2017-03-27T23:01:56.181Z,8.07
2017-03-27T23:02:55.025Z,4.70
2017-03-27T23:03:53.879Z,5.83
2017-03-27T23:04:52.350Z,7.12
2017-03-27T23:05:51.148Z,8.78
2017-03-27T23:06:50.289Z,7.22
2017-03-27T23:07:49.125Z,7.12
2017-03-27T23:08:47.927Z,10.85
2017-03-27T23:09:46.740Z,5.30
2017-03-27T23:10:45.560Z,5.65
2017-03-27T23:11:44.386Z,8.00
2017-03-27T23:12:43.568Z,5.97
2017-03-27T23:13:42.436Z,6.50
2017-03-27T23:14:41.241Z,6.02
2017-03-27T23:15:40.033Z,6.22
2017-03-27T23:16:38.469Z,7.52
2017-03-27T23:17:37.299Z,4.95
2017-03-27T23:18:36.381Z,7.48
2017-03-27T23:19:35.192Z,5.25
2017-03-27T23:20:34.019Z,9.05
2017-03-27T23:21:32.833Z,5.90
2017-03-27T23:22:31.246Z,8.40
2017-03-27T23:23:30.081Z,6.48
2017-03-27T23:25:35.148Z,7.30
2017-03-27T23:26:33.967Z,7.52
2017-03-27T23:27:33.164Z,9.68
2017-03-27T23:28:31.608Z,7.33
2017-03-27T23:29:30.435Z,7.18
2017-03-27T23:30:28.855Z,8.55
2017-03-27T23:31:28.023Z,9.55
2017-03-27T23:32:26.877Z,7.43
2017-03-27T23:33:25.681Z,11.00
2017-03-27T23:34:24.264Z,7.93
2017-03-27T23:35:23.070Z,5.95
2017-03-27T23:36:21.929Z,8.17
2017-03-27T23:37:21.132Z,8.58
2017-03-27T23:38:19.965Z,7.27
2017-03-27T23:39:18.797Z,6.55
2017-03-27T23:40:17.628Z,8.77
2017-03-27T23:41:16.433Z,5.85
2017-03-27T23:42:15.317Z,9.05
2017-03-27T23:43:14.487Z,9.63
2017-03-27T23:44:13.340Z,8.55
2017-03-27T23:45:11.897Z,7.03
2017-03-27T23:46:10.409Z,6.00
2017-03-27T23:47:09.274Z,6.60
2017-03-27T23:48:08.093Z,6.28
2017-03-27T23:49:07.221Z,9.30
2017-03-27T23:50:06.067Z,5.68
2017-03-27T23:51:05.202Z,7.05
2017-03-27T23:52:04.067Z,6.93
2017-03-27T23:53:02.898Z,8.83
2017-03-27T23:54:01.748Z,6.72
2017-03-27T23:55:00.908Z,8.97
2017-03-27T23:55:59.713Z,6.73
2017-03-27T23:56:58.508Z,5.52
2017-03-27T23:57:57.320Z,6.12
2017-03-27T23:58:56.443Z,7.70
2017-03-27T23:59:55.258Z,6.60
